createdAt,value
2022-08-22T00:02:30.834Z,20.47
2022-08-22T00:06:01.635Z,20.44
2022-08-22T00:09:35.902Z,20.39
2022-08-22T00:12:49.362Z,20.33
2022-08-22T00:16:15.076Z,20.29
2022-08-22T00:20:08.025Z,20.26
2022-08-22T00:23:37.568Z,20.23
2022-08-22T00:27:11.164Z,20.22
2022-08-22T00:30:27.750Z,20.20
2022-08-22T00:33:33.618Z,20.19
2022-08-22T00:37:09.287Z,20.17
2022-08-22T00:40:37.145Z,20.17
2022-08-22T00:44:05.062Z,20.17
2022-08-22T00:47:30.649Z,20.17
2022-08-22T00:51:08.021Z,20.16
2022-08-22T00:54:37.038Z,20.15
2022-08-22T00:58:08.303Z,20.13
2022-08-22T01:01:22.589Z,20.13
2022-08-22T01:04:45.588Z,20.14
2022-08-22T01:08:05.396Z,20.12
2022-08-22T01:11:43.273Z,20.12
2022-08-22T01:15:11.356Z,20.11
2022-08-22T01:18:44.494Z,20.11
2022-08-22T01:22:26.471Z,20.10
2022-08-22T01:26:11.921Z,20.08
2022-08-22T01:29:29.682Z,20.07
2022-08-22T01:33:12.813Z,20.05
2022-08-22T01:36:32.497Z,19.98
2022-08-22T01:40:27.192Z,19.94
2022-08-22T01:44:12.387Z,19.94
2022-08-22T01:47:37.560Z,19.97
2022-08-22T01:50:59.564Z,20.03
2022-08-22T01:54:17.056Z,20.09
2022-08-22T01:57:23.532Z,20.17
2022-08-22T02:00:34.907Z,20.24
2022-08-22T02:03:48.125Z,20.30
2022-08-22T02:07:32.073Z,20.35
2022-08-22T02:11:02.533Z,20.41
2022-08-22T02:14:13.898Z,20.47
2022-08-22T02:17:33.881Z,20.51
2022-08-22T02:21:01.555Z,20.54
2022-08-22T02:24:14.574Z,20.56
2022-08-22T02:27:33.955Z,20.58
2022-08-22T02:31:18.526Z,20.59
2022-08-22T02:35:01.585Z,20.62
2022-08-22T02:38:23.883Z,20.63
2022-08-22T02:41:43.436Z,20.62
2022-08-22T02:44:56.239Z,20.63
2022-08-22T02:48:29.605Z,20.61
2022-08-22T02:51:53.386Z,20.59
2022-08-22T02:55:32.204Z,20.57
2022-08-22T02:58:50.787Z,20.53
2022-08-22T03:01:59.417Z,20.54
2022-08-22T03:05:14.840Z,20.54
2022-08-22T03:08:42.959Z,20.53
2022-08-22T03:11:51.375Z,20.54
2022-08-22T03:15:17.592Z,20.53
2022-08-22T03:18:32.485Z,20.54
2022-08-22T03:21:49.009Z,20.54
2022-08-22T03:25:21.432Z,20.57
2022-08-22T03:28:31.556Z,20.58
2022-08-22T03:31:39.938Z,20.61
2022-08-22T03:34:45.180Z,20.63
2022-08-22T03:37:55.106Z,20.66
2022-08-22T03:41:24.926Z,20.67
2022-08-22T03:45:08.947Z,20.69
2022-08-22T03:48:50.372Z,20.74
2022-08-22T03:52:18.019Z,20.77
2022-08-22T03:55:38.625Z,20.82
2022-08-22T03:59:15.992Z,20.84
2022-08-22T04:02:44.420Z,20.88
2022-08-22T04:06:22.619Z,20.90
2022-08-22T04:09:47.563Z,20.93
2022-08-22T04:13:24.838Z,20.98
2022-08-22T04:17:04.135Z,21.03
2022-08-22T04:20:35.610Z,21.10
2022-08-22T04:24:24.304Z,21.16
2022-08-22T04:27:43.753Z,21.22
2022-08-22T04:30:56.122Z,21.29
2022-08-22T04:34:17.599Z,21.35
2022-08-22T04:37:37.641Z,21.40
2022-08-22T04:40:50.266Z,21.47
2022-08-22T04:44:10.827Z,21.51
2022-08-22T04:47:54.085Z,21.57
2022-08-22T04:51:24.874Z,21.62
2022-08-22T04:55:14.576Z,21.68
2022-08-22T04:58:54.444Z,21.75
2022-08-22T05:02:11.203Z,21.81
2022-08-22T05:05:29.493Z,21.84
2022-08-22T05:08:41.492Z,21.88
2022-08-22T05:11:51.243Z,21.92
2022-08-22T05:15:12.677Z,21.95
2022-08-22T05:18:25.609Z,22.01
2022-08-22T05:21:41.310Z,22.07
2022-08-22T05:24:56.163Z,22.13
2022-08-22T05:28:10.103Z,22.18
2022-08-22T05:31:23.269Z,22.23
2022-08-22T05:34:40.621Z,22.29
2022-08-22T05:38:07.415Z,22.35
2022-08-22T05:41:27.763Z,22.36
2022-08-22T05:44:41.467Z,22.43
2022-08-22T05:48:06.345Z,22.49
2022-08-22T05:51:18.118Z,22.54
2022-08-22T05:54:34.598Z,22.59
2022-08-22T05:57:50.289Z,22.67
2022-08-22T06:01:05.704Z,22.73
2022-08-22T06:04:28.614Z,22.79
2022-08-22T06:07:42.527Z,22.79
2022-08-22T06:11:00.448Z,22.84
2022-08-22T06:14:24.884Z,22.87
2022-08-22T06:17:39.320Z,22.95
2022-08-22T06:21:11.652Z,23.03
2022-08-22T06:24:29.802Z,23.11
2022-08-22T06:27:40.778Z,23.16
2022-08-22T06:30:46.968Z,23.24
2022-08-22T06:33:53.908Z,23.30
2022-08-22T06:37:04.189Z,23.37
2022-08-22T06:40:10.930Z,23.48
2022-08-22T06:43:17.766Z,23.59
2022-08-22T06:46:26.001Z,23.69
2022-08-22T06:49:31.626Z,23.76
2022-08-22T06:52:40.729Z,23.81
2022-08-22T06:55:51.971Z,23.87
2022-08-22T06:59:01.712Z,23.93
2022-08-22T07:02:41.830Z,24.00
2022-08-22T07:05:56.168Z,24.09
2022-08-22T07:09:14.433Z,24.15
2022-08-22T07:12:34.369Z,24.19
2022-08-22T07:15:51.047Z,24.25
2022-08-22T07:19:07.104Z,24.27
2022-08-22T07:22:14.324Z,24.32
2022-08-22T07:25:34.236Z,24.36
2022-08-22T07:29:17.005Z,24.40
2022-08-22T07:36:02.289Z,24.59
2022-08-22T07:39:18.754Z,24.57
2022-08-22T07:42:34.386Z,24.56
2022-08-22T07:46:10.227Z,24.59
2022-08-22T07:49:49.881Z,24.65
2022-08-22T07:52:58.899Z,24.74
2022-08-22T07:56:14.674Z,24.82
2022-08-22T07:59:26.430Z,24.83
2022-08-22T08:02:36.452Z,24.89
2022-08-22T08:05:50.997Z,24.96
2022-08-22T08:09:04.675Z,25.00
2022-08-22T08:12:12.570Z,25.05
2022-08-22T08:15:25.648Z,25.08
2022-08-22T08:18:36.894Z,25.10
2022-08-22T08:21:51.660Z,25.17
2022-08-22T08:25:10.212Z,25.28
2022-08-22T08:28:40.449Z,25.35
2022-08-22T08:31:52.766Z,25.40
2022-08-22T08:34:59.992Z,25.48
2022-08-22T08:38:17.082Z,25.53
2022-08-22T08:42:02.474Z,25.59
2022-08-22T08:45:43.153Z,25.63
2022-08-22T08:49:01.627Z,25.74
2022-08-22T08:52:38.491Z,25.82
2022-08-22T08:56:19.791Z,25.87
2022-08-22T08:59:47.806Z,25.93
2022-08-22T09:03:30.546Z,26.01
2022-08-22T09:07:08.883Z,26.10
2022-08-22T09:10:46.889Z,26.20
2022-08-22T09:14:17.219Z,26.29
2022-08-22T09:17:49.005Z,26.38
2022-08-22T09:21:31.301Z,26.44
2022-08-22T09:28:42.457Z,26.56
2022-08-22T09:32:00.440Z,26.65
2022-08-22T09:35:45.919Z,26.70
2022-08-22T09:39:17.508Z,26.70
2022-08-22T09:40:16.714Z,26.50
2022-08-22T09:42:50.991Z,26.64
2022-08-22T09:46:07.000Z,26.69
2022-08-22T09:49:35.295Z,26.88
2022-08-22T09:53:11.597Z,27.07
2022-08-22T09:56:30.769Z,27.27
2022-08-22T10:00:05.239Z,27.47
2022-08-22T10:03:30.956Z,27.59
2022-08-22T10:06:45.633Z,27.67
2022-08-22T10:10:21.321Z,27.74
2022-08-22T10:13:34.775Z,27.83
2022-08-22T10:17:15.550Z,27.89
2022-08-22T10:20:37.871Z,27.92
2022-08-22T10:24:02.508Z,27.96
2022-08-22T10:27:12.792Z,28.06
2022-08-22T10:30:28.724Z,28.16
2022-08-22T10:33:50.334Z,28.24
2022-08-22T10:37:01.272Z,28.27
2022-08-22T10:40:28.817Z,28.35
2022-08-22T10:43:56.594Z,28.49
2022-08-22T10:47:11.025Z,28.58
2022-08-22T10:50:33.449Z,28.66
2022-08-22T10:53:53.454Z,28.88
2022-08-22T10:57:12.123Z,29.14
2022-08-22T11:00:57.220Z,29.29
2022-08-22T11:04:16.773Z,29.42
2022-08-22T11:08:13.228Z,29.44
2022-08-22T11:11:32.862Z,29.80
2022-08-22T11:15:03.867Z,29.96
2022-08-22T11:18:57.956Z,29.95
2022-08-22T11:22:13.755Z,29.95
2022-08-22T11:25:52.622Z,29.82
2022-08-22T11:29:15.267Z,29.67
2022-08-22T11:32:40.564Z,29.67
2022-08-22T11:36:15.345Z,29.72
2022-08-22T11:39:47.154Z,29.74
2022-08-22T11:43:18.313Z,29.67
2022-08-22T11:46:45.800Z,29.67
2022-08-22T11:50:13.837Z,29.65
2022-08-22T11:53:29.772Z,29.65
2022-08-22T11:56:49.570Z,29.67
2022-08-22T12:00:17.101Z,29.84
2022-08-22T12:03:55.730Z,30.03
2022-08-22T12:07:27.484Z,30.22
2022-08-22T12:10:51.685Z,30.42
2022-08-22T12:14:22.351Z,30.53
2022-08-22T12:18:10.659Z,30.76
2022-08-22T12:22:03.408Z,30.97
2022-08-22T12:25:29.369Z,31.16
2022-08-22T12:29:15.561Z,31.24
2022-08-22T12:32:45.774Z,31.31
2022-08-22T12:36:44.091Z,31.36
2022-08-22T12:40:14.061Z,31.36
2022-08-22T12:43:44.871Z,31.33
2022-08-22T12:47:17.559Z,31.27
2022-08-22T12:51:17.470Z,31.17
2022-08-22T12:54:31.474Z,31.12
2022-08-22T12:58:20.394Z,31.08
2022-08-22T13:01:43.182Z,31.09
2022-08-22T13:04:51.098Z,31.06
2022-08-22T13:08:00.253Z,31.06
2022-08-22T13:11:22.530Z,31.01
2022-08-22T13:14:26.987Z,31.02
2022-08-22T13:17:36.531Z,31.04
2022-08-22T13:20:48.471Z,31.03
2022-08-22T13:24:00.624Z,31.03
2022-08-22T13:27:20.365Z,31.04
2022-08-22T13:30:55.950Z,30.99
2022-08-22T13:34:18.298Z,30.99
2022-08-22T13:37:42.426Z,31.02
2022-08-22T13:40:49.970Z,31.03
2022-08-22T13:44:23.338Z,31.01
2022-08-22T13:47:42.601Z,31.00
2022-08-22T13:50:53.951Z,31.00
2022-08-22T13:54:16.051Z,31.03
2022-08-22T13:57:41.878Z,31.02
2022-08-22T14:01:48.276Z,31.04
2022-08-22T14:04:59.748Z,31.05
2022-08-22T14:08:26.824Z,31.07
2022-08-22T14:11:37.249Z,31.07
2022-08-22T14:14:47.581Z,31.11
2022-08-22T14:18:00.082Z,31.14
2022-08-22T14:21:07.884Z,31.20
2022-08-22T14:24:45.820Z,31.33
2022-08-22T14:28:06.466Z,31.43
2022-08-22T14:31:27.291Z,31.44
2022-08-22T14:34:34.380Z,31.45
2022-08-22T14:37:53.407Z,31.47
2022-08-22T14:41:02.022Z,31.46
2022-08-22T14:44:22.148Z,31.42
2022-08-22T14:48:30.468Z,31.39
2022-08-22T14:51:33.259Z,31.35
2022-08-22T14:54:42.697Z,31.30
2022-08-22T14:57:53.168Z,31.28
2022-08-22T15:01:01.687Z,31.30
2022-08-22T15:04:21.448Z,31.32
2022-08-22T15:07:40.663Z,31.33
2022-08-22T15:10:48.446Z,31.25
2022-08-22T15:13:55.958Z,31.16
2022-08-22T15:17:13.081Z,31.05
2022-08-22T15:20:49.627Z,30.96
2022-08-22T15:23:58.447Z,30.86
2022-08-22T15:27:09.730Z,30.76
2022-08-22T15:30:21.389Z,30.67
2022-08-22T15:33:32.170Z,30.58
2022-08-22T15:36:40.320Z,30.47
2022-08-22T15:39:52.713Z,30.38
2022-08-22T15:43:04.528Z,30.24
2022-08-22T15:46:40.803Z,30.13
2022-08-22T15:49:51.253Z,30.05
2022-08-22T15:53:33.749Z,30.02
2022-08-22T15:56:45.206Z,29.98
2022-08-22T16:00:10.615Z,29.94
2022-08-22T16:03:26.069Z,29.94
2022-08-22T16:06:49.179Z,29.86
2022-08-22T16:09:59.919Z,29.71
2022-08-22T16:13:45.972Z,29.57
2022-08-22T16:17:10.825Z,29.43
2022-08-22T16:20:31.836Z,29.27
2022-08-22T16:23:37.858Z,29.11
2022-08-22T16:26:53.662Z,28.96
2022-08-22T16:30:00.641Z,28.83
2022-08-22T16:33:12.246Z,28.69
2022-08-22T16:36:57.867Z,28.56
2022-08-22T16:40:15.290Z,28.44
2022-08-22T16:43:29.851Z,28.28
2022-08-22T16:46:44.502Z,28.15
2022-08-22T16:50:06.971Z,28.02
2022-08-22T16:53:23.988Z,27.91
2022-08-22T16:56:49.576Z,27.79
2022-08-22T17:00:08.950Z,27.67
2022-08-22T17:04:10.387Z,27.56
2022-08-22T17:08:05.024Z,27.45
2022-08-22T17:11:50.186Z,27.34
2022-08-22T17:15:12.784Z,27.24
2022-08-22T17:18:55.394Z,27.15
2022-08-22T17:22:13.559Z,27.07
2022-08-22T17:25:42.342Z,26.98
2022-08-22T17:29:08.111Z,26.91
2022-08-22T17:32:59.046Z,26.84
2022-08-22T17:36:32.453Z,26.76
2022-08-22T17:40:07.072Z,26.68
2022-08-22T17:43:49.655Z,26.60
2022-08-22T17:47:09.818Z,26.52
2022-08-22T17:50:25.988Z,26.44
2022-08-22T17:54:09.204Z,26.36
2022-08-22T17:57:53.717Z,26.29
2022-08-22T18:01:11.187Z,26.21
2022-08-22T18:04:17.071Z,26.12
2022-08-22T18:07:51.038Z,26.04
2022-08-22T18:11:20.181Z,25.99
2022-08-22T18:14:57.042Z,25.92
2022-08-22T18:18:30.147Z,25.85
2022-08-22T18:21:51.357Z,25.77
2022-08-22T18:25:20.556Z,25.71
2022-08-22T18:29:01.146Z,25.65
2022-08-22T18:32:45.310Z,25.58
2022-08-22T18:36:09.270Z,25.51
2022-08-22T18:39:22.970Z,25.44
2022-08-22T18:43:04.030Z,25.38
2022-08-22T18:46:12.056Z,25.32
2022-08-22T18:49:39.901Z,25.27
2022-08-22T18:52:51.827Z,25.23
2022-08-22T18:56:12.635Z,25.18
2022-08-22T18:59:33.098Z,25.14
2022-08-22T19:03:21.270Z,25.11
2022-08-22T19:07:08.443Z,25.08
2022-08-22T19:10:34.474Z,25.03
2022-08-22T19:14:02.034Z,24.99
2022-08-22T19:17:26.432Z,24.95
2022-08-22T19:21:10.155Z,24.93
2022-08-22T19:24:19.280Z,24.89
2022-08-22T19:27:38.284Z,24.86
2022-08-22T19:31:08.536Z,24.86
2022-08-22T19:34:47.649Z,24.86
2022-08-22T19:38:04.751Z,24.88
2022-08-22T19:41:11.525Z,24.88
2022-08-22T19:44:18.827Z,24.89
2022-08-22T19:47:35.741Z,24.89
2022-08-22T19:50:48.358Z,24.89
2022-08-22T19:54:05.248Z,24.91
2022-08-22T19:57:25.703Z,24.89
2022-08-22T20:00:39.758Z,24.88
2022-08-22T20:04:11.476Z,24.86
2022-08-22T20:07:32.191Z,24.84
2022-08-22T20:10:58.024Z,24.82
2022-08-22T20:14:04.478Z,24.78
2022-08-22T20:17:42.854Z,24.77
2022-08-22T20:20:53.870Z,24.75
2022-08-22T20:24:01.277Z,24.72
2022-08-22T20:27:14.530Z,24.69
2022-08-22T20:30:29.377Z,24.69
2022-08-22T20:33:48.423Z,24.69
2022-08-22T20:37:23.700Z,24.71
2022-08-22T20:40:55.519Z,24.70
2022-08-22T20:43:45.624Z,24.69
2022-08-22T20:47:21.222Z,24.69
2022-08-22T20:50:27.712Z,24.67
2022-08-22T20:53:36.785Z,24.65
2022-08-22T20:56:53.954Z,24.62
2022-08-22T21:00:10.216Z,24.57
2022-08-22T21:03:46.890Z,24.54
2022-08-22T21:06:54.787Z,24.49
2022-08-22T21:10:30.446Z,24.46
2022-08-22T21:13:48.381Z,24.44
2022-08-22T21:16:55.268Z,24.42
2022-08-22T21:20:01.528Z,24.40
2022-08-22T21:23:13.016Z,24.36
2022-08-22T21:26:25.344Z,24.35
2022-08-22T21:29:37.279Z,24.33
2022-08-22T21:32:59.488Z,24.30
2022-08-22T21:36:13.023Z,24.28
2022-08-22T21:39:28.899Z,24.27
2022-08-22T21:42:53.086Z,24.24
2022-08-22T21:46:01.292Z,24.21
2022-08-22T21:49:20.601Z,24.19
2022-08-22T21:52:26.421Z,24.17
2022-08-22T21:55:46.418Z,24.14
2022-08-22T21:58:53.404Z,24.10
2022-08-22T22:02:03.640Z,24.06
2022-08-22T22:05:13.430Z,24.03
2022-08-22T22:08:21.094Z,23.99
2022-08-22T22:11:29.228Z,23.95
2022-08-22T22:14:35.484Z,23.94
2022-08-22T22:17:43.800Z,23.88
2022-08-22T22:20:49.232Z,23.84
2022-08-22T22:23:58.630Z,23.80
2022-08-22T22:27:04.643Z,23.75
2022-08-22T22:30:09.681Z,23.72
2022-08-22T22:33:15.595Z,23.68
2022-08-22T22:36:26.556Z,23.63
2022-08-22T22:39:33.471Z,23.60
2022-08-22T22:42:38.943Z,23.55
2022-08-22T22:45:46.028Z,23.53
2022-08-22T22:48:53.118Z,23.50
2022-08-22T22:51:59.873Z,23.47
2022-08-22T22:55:04.212Z,23.44
2022-08-22T22:58:11.903Z,23.40
2022-08-22T23:01:30.263Z,23.37
2022-08-22T23:04:35.898Z,23.35
2022-08-22T23:07:44.735Z,23.32
2022-08-22T23:10:51.929Z,23.30
2022-08-22T23:13:59.314Z,23.27
2022-08-22T23:17:06.449Z,23.27
2022-08-22T23:20:12.589Z,23.22
2022-08-22T23:23:19.472Z,23.19
2022-08-22T23:26:24.989Z,23.17
2022-08-22T23:29:34.067Z,23.15
2022-08-22T23:32:39.679Z,23.12
2022-08-22T23:35:45.531Z,23.11
2022-08-22T23:38:51.407Z,23.09
2022-08-22T23:41:57.875Z,23.07
2022-08-22T23:45:03.917Z,23.05
2022-08-22T23:48:09.997Z,23.04
2022-08-22T23:51:15.232Z,23.03
2022-08-22T23:54:22.833Z,23.01
2022-08-22T23:57:29.457Z,22.99
